createdAt,value
2019-02-24T00:00:30.976Z,9.07
2019-02-24T00:03:36.514Z,8.57
2019-02-24T00:06:40.124Z,9.37
2019-02-24T00:09:43.725Z,9.00
2019-02-24T00:12:47.215Z,7.97
2019-02-24T00:15:50.684Z,7.80
2019-02-24T00:18:54.084Z,7.27
2019-02-24T00:21:57.628Z,7.60
2019-02-24T00:25:01.089Z,8.30
2019-02-24T00:28:07.092Z,8.50
2019-02-24T00:31:09.836Z,10.67
2019-02-24T00:34:13.341Z,9.77
2019-02-24T00:37:16.880Z,10.07
2019-02-24T00:40:20.535Z,12.13
2019-02-24T00:43:24.080Z,12.23
2019-02-24T00:46:27.558Z,12.37
2019-02-24T00:49:30.951Z,11.23
2019-02-24T00:52:34.389Z,11.27
2019-02-24T00:55:37.848Z,10.93
2019-02-24T00:58:41.288Z,10.57
2019-02-24T01:02:10.768Z,10.10
2019-02-24T01:05:14.172Z,11.17
2019-02-24T01:08:17.564Z,13.17
2019-02-24T01:11:20.964Z,17.10
2019-02-24T01:14:24.472Z,16.00
2019-02-24T01:17:27.908Z,16.93
2019-02-24T01:20:31.390Z,18.10
2019-02-24T01:23:34.776Z,17.13
2019-02-24T01:26:38.275Z,18.27
2019-02-24T01:29:41.672Z,17.07
2019-02-24T01:32:45.067Z,16.97
2019-02-24T01:35:48.476Z,14.80
2019-02-24T01:38:51.770Z,14.60
2019-02-24T01:41:55.207Z,15.07
2019-02-24T01:44:58.691Z,13.80
2019-02-24T01:48:02.112Z,14.33
2019-02-24T01:51:05.567Z,14.20
2019-02-24T01:54:08.976Z,14.73
2019-02-24T01:57:12.472Z,13.87
2019-02-24T02:00:16.076Z,14.43
2019-02-24T02:03:19.584Z,14.37
2019-02-24T02:06:23.103Z,14.67
2019-02-24T02:09:27.512Z,14.97
2019-02-24T02:12:30.911Z,14.50
2019-02-24T02:15:34.308Z,14.43
2019-02-24T02:18:37.807Z,15.83
2019-02-24T02:21:41.210Z,13.70
2019-02-24T02:24:46.313Z,14.93
2019-02-24T02:27:49.720Z,15.07
2019-02-24T02:30:53.144Z,14.20
2019-02-24T02:33:56.592Z,13.00
2019-02-24T02:37:00.053Z,12.83
2019-02-24T02:40:03.588Z,13.90
2019-02-24T02:43:08.153Z,13.93
2019-02-24T02:46:11.580Z,13.03
2019-02-24T02:49:15.016Z,14.37
2019-02-24T02:52:18.584Z,15.13
2019-02-24T02:55:21.987Z,14.07
2019-02-24T02:58:25.524Z,14.00
2019-02-24T03:01:28.988Z,14.07
2019-02-24T03:04:32.533Z,14.23
2019-02-24T03:07:42.956Z,15.00
2019-02-24T03:10:46.461Z,14.23
2019-02-24T03:13:49.999Z,14.60
2019-02-24T03:16:53.565Z,15.13
2019-02-24T03:19:57.004Z,14.73
2019-02-24T03:23:00.616Z,14.60
2019-02-24T03:26:04.071Z,14.87
2019-02-24T03:29:07.616Z,15.60
2019-02-24T03:32:11.181Z,14.80
2019-02-24T03:35:14.748Z,14.00
2019-02-24T03:38:18.329Z,14.07
2019-02-24T03:41:21.892Z,13.70
2019-02-24T03:44:25.353Z,14.43
2019-02-24T03:47:28.799Z,13.27
2019-02-24T03:50:31.998Z,14.27
2019-02-24T03:53:35.528Z,12.90
2019-02-24T03:56:39.101Z,13.30
2019-02-24T03:59:42.532Z,12.70
2019-02-24T04:02:46.001Z,12.87
2019-02-24T04:05:49.401Z,12.77
2019-02-24T04:08:52.840Z,13.37
2019-02-24T04:11:56.399Z,12.23
2019-02-24T04:14:59.940Z,13.33
2019-02-24T04:18:03.413Z,12.30
2019-02-24T04:21:06.904Z,13.30
2019-02-24T04:24:10.348Z,13.10
2019-02-24T04:27:13.813Z,13.13
2019-02-24T04:30:17.249Z,16.57
2019-02-24T04:33:20.714Z,14.13
2019-02-24T04:36:24.121Z,13.33
2019-02-24T04:39:27.552Z,13.57
2019-02-24T04:42:31.011Z,13.00
2019-02-24T04:45:34.416Z,13.33
2019-02-24T04:48:38.224Z,11.97
2019-02-24T04:51:41.627Z,12.00
2019-02-24T04:54:46.092Z,12.67
2019-02-24T04:57:49.565Z,10.83
2019-02-24T05:00:52.949Z,11.83
2019-02-24T05:03:56.452Z,11.57
2019-02-24T05:06:59.851Z,10.90
2019-02-24T05:10:03.301Z,10.53
2019-02-24T05:13:06.755Z,10.47
2019-02-24T05:16:10.156Z,10.60
2019-02-24T05:19:13.556Z,10.30
2019-02-24T05:22:16.952Z,9.77
2019-02-24T05:25:20.460Z,10.97
2019-02-24T05:28:23.961Z,10.23
2019-02-24T05:31:27.364Z,9.53
2019-02-24T05:34:30.900Z,9.80
2019-02-24T05:37:34.405Z,10.20
2019-02-24T05:40:37.865Z,9.70
2019-02-24T05:43:41.264Z,11.03
2019-02-24T05:46:44.765Z,10.57
2019-02-24T05:49:48.272Z,10.03
2019-02-24T05:52:51.711Z,9.80
2019-02-24T05:55:55.276Z,10.33
2019-02-24T05:58:58.788Z,9.30
2019-02-24T06:02:02.280Z,9.90
2019-02-24T06:05:05.737Z,10.43
2019-02-24T06:08:09.136Z,10.23
2019-02-24T06:11:12.629Z,10.07
2019-02-24T06:14:16.037Z,9.20
2019-02-24T06:17:19.436Z,10.17
2019-02-24T06:20:22.880Z,9.60
2019-02-24T06:23:26.375Z,9.87
2019-02-24T06:26:30.298Z,9.60
2019-02-24T06:29:33.996Z,9.67
2019-02-24T06:32:37.456Z,9.83
2019-02-24T06:35:40.900Z,9.87
2019-02-24T06:38:44.504Z,10.03
2019-02-24T06:41:47.964Z,9.83
2019-02-24T06:44:51.596Z,8.87
2019-02-24T06:47:55.074Z,9.73
2019-02-24T06:51:01.433Z,10.80
2019-02-24T06:54:04.884Z,10.17
2019-02-24T06:57:08.380Z,9.83
2019-02-24T07:00:14.411Z,10.47
2019-02-24T07:03:17.132Z,10.40
2019-02-24T07:06:20.732Z,10.43
2019-02-24T07:09:24.238Z,9.70
2019-02-24T07:12:27.744Z,9.70
2019-02-24T07:15:31.236Z,9.47
2019-02-24T07:18:35.052Z,10.73
2019-02-24T07:21:38.651Z,9.70
2019-02-24T07:24:42.116Z,9.80
2019-02-24T07:27:45.655Z,8.50
2019-02-24T07:30:49.119Z,10.40
2019-02-24T07:33:52.548Z,9.67
2019-02-24T07:36:55.964Z,9.40
2019-02-24T07:39:59.524Z,9.33
2019-02-24T07:43:02.963Z,10.43
2019-02-24T07:46:06.428Z,10.60
2019-02-24T07:49:09.927Z,10.73
2019-02-24T07:52:13.368Z,10.17
2019-02-24T07:55:16.832Z,10.63
2019-02-24T07:58:21.198Z,11.03
2019-02-24T08:01:24.655Z,10.47
2019-02-24T08:04:27.958Z,11.77
2019-02-24T08:07:31.392Z,11.03
2019-02-24T08:10:34.860Z,10.50
2019-02-24T08:13:38.296Z,10.33
2019-02-24T08:16:41.756Z,10.43
2019-02-24T08:19:45.160Z,11.60
2019-02-24T08:22:48.701Z,10.87
2019-02-24T08:25:52.160Z,9.93
2019-02-24T08:28:55.662Z,10.53
2019-02-24T08:32:00.087Z,9.80
2019-02-24T08:35:03.388Z,10.10
2019-02-24T08:38:06.928Z,9.93
2019-02-24T08:41:10.399Z,9.10
2019-02-24T08:44:13.788Z,8.80
2019-02-24T08:47:17.292Z,8.17
2019-02-24T08:50:20.696Z,8.87
2019-02-24T08:53:24.128Z,9.13
2019-02-24T08:56:27.592Z,7.80
2019-02-24T08:59:31.044Z,7.77
2019-02-24T09:02:34.498Z,8.03
2019-02-24T09:05:37.900Z,7.90
2019-02-24T09:08:41.452Z,8.40
2019-02-24T09:11:44.957Z,9.73
2019-02-24T09:14:48.407Z,7.30
2019-02-24T09:17:51.806Z,8.05
2019-02-24T09:20:55.243Z,7.75
2019-02-24T09:23:58.812Z,7.37
2019-02-24T09:27:02.414Z,7.22
2019-02-24T09:30:06.120Z,8.18
2019-02-24T09:33:09.560Z,8.10
2019-02-24T09:36:13.020Z,7.80
2019-02-24T09:39:16.627Z,8.23
2019-02-24T09:42:20.073Z,7.83
2019-02-24T09:45:23.636Z,9.65
2019-02-24T09:48:27.138Z,9.80
2019-02-24T09:51:30.636Z,8.58
2019-02-24T09:54:34.041Z,9.38
2019-02-24T09:57:37.436Z,7.70
2019-02-24T10:00:40.839Z,8.75
2019-02-24T10:03:44.140Z,8.65
2019-02-24T10:06:47.640Z,8.93
2019-02-24T10:09:51.043Z,8.63
2019-02-24T10:12:54.480Z,8.55
2019-02-24T10:15:57.940Z,8.03
2019-02-24T10:19:01.579Z,9.73
2019-02-24T10:22:05.084Z,8.38
2019-02-24T10:25:08.654Z,9.40
2019-02-24T10:28:12.301Z,8.18
2019-02-24T10:31:19.848Z,8.13
2019-02-24T10:34:21.148Z,6.97
2019-02-24T10:37:25.563Z,8.35
2019-02-24T10:40:29.027Z,8.23
2019-02-24T10:43:32.496Z,7.47
2019-02-24T10:46:35.933Z,8.03
2019-02-24T10:49:39.474Z,7.85
2019-02-24T10:52:43.084Z,7.80
2019-02-24T10:55:46.643Z,7.28
2019-02-24T10:58:50.085Z,7.53
2019-02-24T11:01:53.543Z,6.95
2019-02-24T11:04:57.048Z,6.83
2019-02-24T11:08:00.484Z,6.90
2019-02-24T11:11:03.955Z,6.30
2019-02-24T11:14:07.924Z,6.45
2019-02-24T11:17:11.390Z,6.67
2019-02-24T11:20:15.075Z,5.40
2019-02-24T11:23:18.515Z,5.95
2019-02-24T11:26:22.180Z,5.72
2019-02-24T11:29:25.712Z,5.03
2019-02-24T11:32:29.289Z,5.72
2019-02-24T11:35:32.684Z,4.60
2019-02-24T11:38:36.227Z,4.85
2019-02-24T11:41:39.788Z,4.70
2019-02-24T11:44:43.328Z,4.25
2019-02-24T11:47:46.797Z,4.67
2019-02-24T11:50:50.302Z,9.43
2019-02-24T11:53:53.740Z,5.50
2019-02-24T11:56:57.300Z,4.65
2019-02-24T12:00:00.813Z,5.20
2019-02-24T12:03:04.213Z,4.62
2019-02-24T12:06:07.661Z,4.95
2019-02-24T12:09:11.200Z,4.17
2019-02-24T12:12:14.665Z,3.87
2019-02-24T12:15:18.071Z,3.98
2019-02-24T12:18:21.604Z,4.12
2019-02-24T12:21:25.112Z,4.10
2019-02-24T12:24:28.818Z,3.50
2019-02-24T12:27:32.288Z,4.17
2019-02-24T12:30:35.680Z,4.58
2019-02-24T12:33:39.219Z,5.35
2019-02-24T12:36:42.789Z,4.03
2019-02-24T12:39:46.188Z,5.20
2019-02-24T12:42:49.590Z,4.47
2019-02-24T12:45:52.984Z,4.47
2019-02-24T12:48:56.528Z,4.40
2019-02-24T12:51:59.989Z,4.33
2019-02-24T12:55:03.392Z,4.42
2019-02-24T12:58:07.520Z,4.30
2019-02-24T13:01:11.212Z,4.47
2019-02-24T13:04:14.775Z,4.45
2019-02-24T13:07:18.216Z,3.90
2019-02-24T13:10:21.617Z,4.35
2019-02-24T13:13:25.020Z,4.37
2019-02-24T13:16:28.525Z,4.67
2019-02-24T13:19:31.956Z,4.20
2019-02-24T13:22:35.526Z,4.28
2019-02-24T13:25:39.036Z,4.50
2019-02-24T13:28:50.171Z,4.65
2019-02-24T13:31:47.880Z,3.83
2019-02-24T13:34:51.380Z,4.17
2019-02-24T13:37:54.976Z,4.62
2019-02-24T13:40:58.797Z,4.35
2019-02-24T13:44:02.905Z,4.20
2019-02-24T13:47:08.218Z,4.35
2019-02-24T13:50:17.412Z,4.20
2019-02-24T13:53:21.656Z,4.28
2019-02-24T13:56:28.498Z,5.00
2019-02-24T13:59:32.097Z,4.55
2019-02-24T14:02:36.386Z,3.92
2019-02-24T14:05:41.796Z,4.00
2019-02-24T14:08:45.260Z,4.45
2019-02-24T14:11:49.101Z,4.40
2019-02-24T14:14:52.612Z,4.65
2019-02-24T14:17:56.078Z,4.12
2019-02-24T14:20:59.624Z,4.15
2019-02-24T14:24:03.284Z,4.10
2019-02-24T14:27:06.833Z,4.25
2019-02-24T14:30:11.764Z,3.80
2019-02-24T14:33:15.944Z,3.40
2019-02-24T14:36:19.494Z,3.75
2019-02-24T14:39:23.149Z,3.45
2019-02-24T14:42:26.657Z,3.52
2019-02-24T14:45:30.200Z,3.50
2019-02-24T14:48:33.660Z,3.35
2019-02-24T14:51:37.220Z,3.30
2019-02-24T14:54:40.768Z,3.70
2019-02-24T15:12:25.569Z,4.08
2019-02-24T15:15:32.974Z,4.37
2019-02-24T15:18:34.008Z,4.03
2019-02-24T15:21:37.572Z,3.98
2019-02-24T15:24:41.012Z,4.75
2019-02-24T15:27:44.521Z,4.85
2019-02-24T15:30:48.179Z,5.10
2019-02-24T15:33:51.735Z,6.25
2019-02-24T15:36:55.291Z,6.90
2019-02-24T15:39:58.727Z,5.70
2019-02-24T15:43:02.232Z,5.20
2019-02-24T15:46:05.696Z,4.03
2019-02-24T15:49:09.244Z,4.58
2019-02-24T15:52:12.709Z,4.12
2019-02-24T15:55:16.248Z,4.33
2019-02-24T15:58:19.848Z,4.53
2019-02-24T16:01:23.412Z,4.17
2019-02-24T16:04:26.862Z,4.10
2019-02-24T16:07:30.723Z,4.47
2019-02-24T16:10:34.227Z,4.45
2019-02-24T16:13:37.775Z,4.35
2019-02-24T16:16:41.336Z,5.03
2019-02-24T16:19:44.875Z,5.08
2019-02-24T16:22:48.336Z,5.58
2019-02-24T16:25:51.835Z,6.10
2019-02-24T16:28:55.392Z,5.40
2019-02-24T16:31:58.843Z,6.05
2019-02-24T16:35:02.283Z,6.12
2019-02-24T16:38:05.961Z,6.08
2019-02-24T16:41:09.456Z,6.58
2019-02-24T16:44:12.996Z,6.80
2019-02-24T16:47:16.672Z,6.22
2019-02-24T16:50:20.267Z,7.22
2019-02-24T16:53:23.904Z,7.03
2019-02-24T16:56:27.376Z,7.33
2019-02-24T16:59:31.004Z,7.35
2019-02-24T17:02:36.278Z,11.48
2019-02-24T17:05:40.444Z,9.95
2019-02-24T17:08:52.056Z,10.00
2019-02-24T17:11:50.212Z,10.25
2019-02-24T17:14:54.116Z,8.48
2019-02-24T17:17:58.224Z,9.90
2019-02-24T17:21:02.296Z,13.30
2019-02-24T17:24:06.321Z,12.33
2019-02-24T17:27:10.303Z,12.43
2019-02-24T17:30:14.656Z,13.05
2019-02-24T17:33:18.726Z,33.33
2019-02-24T17:36:22.229Z,33.30
2019-02-24T17:39:25.775Z,30.92
2019-02-24T17:42:29.523Z,25.95
2019-02-24T17:45:33.744Z,29.42
2019-02-24T17:48:37.490Z,30.25
2019-02-24T17:51:41.582Z,28.95
2019-02-24T17:54:45.340Z,32.23
2019-02-24T17:57:49.167Z,27.07
2019-02-24T18:00:59.460Z,19.42
2019-02-24T18:04:03.580Z,17.40
2019-02-24T18:07:07.058Z,14.63
2019-02-24T18:10:10.636Z,18.42
2019-02-24T18:13:15.471Z,19.95
2019-02-24T18:16:19.180Z,17.37
2019-02-24T18:19:23.091Z,13.30
2019-02-24T18:22:27.168Z,10.70
2019-02-24T18:25:31.434Z,11.60
2019-02-24T18:28:35.684Z,11.90
2019-02-24T18:31:39.926Z,11.55
2019-02-24T18:34:44.433Z,10.98
2019-02-24T18:37:48.930Z,11.15
2019-02-24T18:41:01.072Z,11.78
2019-02-24T18:44:05.504Z,12.23
2019-02-24T18:47:10.074Z,12.07
2019-02-24T18:50:16.240Z,7.53
2019-02-24T18:53:20.489Z,10.70
2019-02-24T18:56:24.710Z,9.58
2019-02-24T18:59:29.300Z,9.93
2019-02-24T19:02:32.803Z,8.67
2019-02-24T19:05:37.866Z,8.83
2019-02-24T19:08:41.992Z,13.10
2019-02-24T19:11:46.065Z,12.93
2019-02-24T19:14:50.889Z,12.43
2019-02-24T19:17:55.007Z,10.57
2019-02-24T19:20:59.999Z,9.10
2019-02-24T19:24:04.413Z,9.73
2019-02-24T19:27:08.664Z,9.10
2019-02-24T19:30:13.671Z,9.30
2019-02-24T19:33:17.797Z,9.43
2019-02-24T19:36:21.712Z,34.30
2019-02-24T19:39:25.624Z,23.73
2019-02-24T19:42:31.913Z,25.33
2019-02-24T19:45:36.308Z,27.20
2019-02-24T19:48:42.214Z,26.97
2019-02-24T19:51:46.436Z,21.80
2019-02-24T19:54:50.781Z,18.70
2019-02-24T19:57:54.279Z,22.80
2019-02-24T20:00:58.508Z,26.83
2019-02-24T20:04:02.403Z,31.17
2019-02-24T20:07:06.873Z,19.03
2019-02-24T20:10:10.943Z,16.07
2019-02-24T20:13:15.137Z,10.40
2019-02-24T20:16:19.823Z,7.30
2019-02-24T20:19:23.678Z,7.23
2019-02-24T20:22:27.112Z,6.90
2019-02-24T20:25:31.395Z,7.37
2019-02-24T20:28:35.456Z,7.17
2019-02-24T20:31:41.403Z,6.93
2019-02-24T20:34:46.168Z,8.60
2019-02-24T20:37:50.216Z,8.83
2019-02-24T20:40:55.093Z,9.47
2019-02-24T20:43:59.448Z,8.73
2019-02-24T20:47:03.737Z,9.33
2019-02-24T20:50:09.142Z,9.50
2019-02-24T20:53:14.067Z,9.10
2019-02-24T20:56:18.628Z,8.83
2019-02-24T20:59:23.452Z,8.03
2019-02-24T21:02:27.627Z,7.80
2019-02-24T21:05:32.378Z,7.53
2019-02-24T21:08:36.663Z,6.50
2019-02-24T21:11:41.180Z,6.37
2019-02-24T21:14:45.372Z,6.83
2019-02-24T21:17:49.660Z,6.03
2019-02-24T21:20:54.174Z,5.07
2019-02-24T21:23:58.504Z,6.43
2019-02-24T21:27:03.568Z,6.47
2019-02-24T21:30:07.999Z,7.37
2019-02-24T21:33:12.516Z,7.03
2019-02-24T21:36:17.477Z,5.30
2019-02-24T21:39:20.997Z,6.00
2019-02-24T21:42:25.163Z,8.10
2019-02-24T21:45:29.071Z,17.43
2019-02-24T21:48:33.212Z,7.93
2019-02-24T21:51:37.064Z,6.30
2019-02-24T21:54:41.493Z,6.33
2019-02-24T21:57:45.148Z,7.73
2019-02-24T22:00:50.321Z,7.83
2019-02-24T22:03:53.924Z,8.67
2019-02-24T22:06:57.552Z,7.60
2019-02-24T22:10:01.569Z,7.30
2019-02-24T22:13:05.354Z,7.93
2019-02-24T22:16:08.997Z,7.80
2019-02-24T22:19:14.520Z,7.90
2019-02-24T22:22:18.559Z,9.23
2019-02-24T22:25:22.532Z,8.00
2019-02-24T22:28:26.743Z,6.57
2019-02-24T22:31:30.956Z,7.17
2019-02-24T22:34:35.052Z,7.33
2019-02-24T22:37:39.214Z,8.13
2019-02-24T22:40:42.905Z,6.57
2019-02-24T22:43:46.842Z,8.40
2019-02-24T22:46:50.716Z,9.33
2019-02-24T22:49:54.692Z,11.27
2019-02-24T22:52:58.326Z,10.83
2019-02-24T22:56:01.825Z,11.47
2019-02-24T22:59:05.363Z,10.83
2019-02-24T23:02:09.314Z,7.87
2019-02-24T23:05:14.843Z,7.43
2019-02-24T23:08:18.264Z,8.80
2019-02-24T23:11:21.768Z,10.03
2019-02-24T23:14:25.374Z,9.93
2019-02-24T23:17:28.867Z,9.37
2019-02-24T23:20:32.435Z,9.40
2019-02-24T23:23:35.940Z,8.23
2019-02-24T23:26:39.383Z,5.83
2019-02-24T23:29:42.843Z,6.47
2019-02-24T23:32:46.483Z,7.30
2019-02-24T23:35:49.949Z,7.07
2019-02-24T23:38:53.358Z,7.50
2019-02-24T23:41:56.895Z,6.77
2019-02-24T23:45:09.500Z,6.50
2019-02-24T23:48:05.740Z,7.40
2019-02-24T23:51:09.200Z,7.83
2019-02-24T23:54:12.601Z,6.87
2019-02-24T23:57:16.036Z,7.90
